createdAt,value
2023-02-27T09:57:16.916Z,140851.47
2023-02-27T10:02:27.924Z,140904.34
2023-02-27T10:07:35.475Z,140876.06
2023-02-27T10:12:46.545Z,140883.44
2023-02-27T10:17:52.420Z,140809.69
2023-02-27T10:22:56.635Z,140721.19
2023-02-27T10:28:09.993Z,140774.03
2023-02-27T10:33:19.990Z,140846.53
2023-02-27T10:38:29.701Z,140990.44
2023-02-27T10:43:34.588Z,141111.03
2023-02-27T10:48:37.980Z,141111.03
2023-02-27T10:53:57.395Z,141141.81
2023-02-27T10:59:06.061Z,141109.81
2023-02-27T11:04:09.561Z,141211.97
2023-02-27T11:09:14.538Z,141123.34
2023-02-27T11:14:36.434Z,141134.41
2023-02-27T11:19:41.549Z,141116.00
2023-02-27T11:24:45.136Z,141071.69
2023-02-27T11:29:56.924Z,141184.88
2023-02-27T11:35:05.558Z,141101.22
2023-02-27T11:40:15.580Z,141029.84
2023-02-27T11:46:04.153Z,141076.59
2023-02-27T11:51:06.823Z,141092.63
2023-02-27T11:56:12.008Z,141015.06
2023-02-27T12:01:19.738Z,141079.06
2023-02-27T12:06:29.915Z,141146.72
2023-02-27T12:11:37.241Z,141167.63
2023-02-27T12:16:42.246Z,141125.78
2023-02-27T12:21:49.689Z,141122.09
2023-02-27T12:26:56.880Z,141111.03
2023-02-27T12:32:02.088Z,141125.78
2023-02-27T12:37:11.018Z,141079.06
2023-02-27T12:42:38.781Z,141245.22
2023-02-27T12:47:47.715Z,141216.91
2023-02-27T12:52:59.531Z,141135.63
2023-02-27T12:58:17.440Z,141210.75
2023-02-27T13:03:23.079Z,141177.50
2023-02-27T13:08:40.023Z,141191.03
2023-02-27T13:13:45.280Z,141143.03
2023-02-27T13:18:52.200Z,141093.84
2023-02-27T13:24:03.890Z,141160.25
2023-02-27T13:29:07.842Z,141203.38
2023-02-27T13:34:17.121Z,141218.13
2023-02-27T13:39:53.698Z,141183.66
2023-02-27T13:44:58.122Z,141219.34
2023-02-27T13:50:02.546Z,141146.72
2023-02-27T13:55:26.291Z,141138.09
2023-02-27T14:00:32.782Z,141087.69
2023-02-27T14:05:37.841Z,141102.44
2023-02-27T14:10:51.358Z,141104.91
2023-02-27T14:16:00.376Z,141118.41
2023-02-27T14:21:04.228Z,141077.81
2023-02-27T14:26:15.580Z,141074.13
2023-02-27T14:31:26.229Z,141096.31
2023-02-27T14:36:34.550Z,141160.25
2023-02-27T14:41:44.822Z,141076.59
2023-02-27T14:46:51.210Z,141059.38
2023-02-27T14:51:54.846Z,141074.13
2023-02-27T14:57:01.178Z,141017.53
2023-02-27T15:02:05.218Z,141071.69
2023-02-27T15:07:18.251Z,141008.94
2023-02-27T15:12:23.801Z,140959.69
2023-02-27T15:17:28.297Z,140983.09
2023-02-27T15:22:38.852Z,140960.94
2023-02-27T15:27:44.415Z,140981.84
2023-02-27T15:32:48.980Z,141016.28
2023-02-27T15:38:08.495Z,141040.91
2023-02-27T15:43:13.283Z,141051.97
2023-02-27T15:48:18.205Z,141022.44
2023-02-27T15:53:22.312Z,140978.16
2023-02-27T15:58:28.607Z,140943.69
2023-02-27T16:03:34.151Z,140936.31
2023-02-27T16:08:37.532Z,140931.41
2023-02-27T16:13:42.953Z,140946.19
2023-02-27T16:18:48.605Z,140962.16
2023-02-27T16:23:53.915Z,140915.41
2023-02-27T16:29:00.372Z,140895.75
2023-02-27T16:34:15.329Z,140860.06
2023-02-27T16:39:18.655Z,140888.34
2023-02-27T16:44:26.014Z,140847.78
2023-02-27T16:49:32.038Z,140869.91
2023-02-27T16:54:36.644Z,140879.75
2023-02-27T16:59:41.627Z,140774.03
2023-02-27T17:04:47.767Z,140704.00
2023-02-27T17:09:51.295Z,140735.94
2023-02-27T17:14:56.269Z,140732.25
2023-02-27T17:19:59.735Z,140713.81
2023-02-27T17:25:03.180Z,140663.41
2023-02-27T17:30:09.279Z,140701.53
2023-02-27T17:35:12.637Z,140729.81
2023-02-27T17:40:15.908Z,140760.53
2023-02-27T17:45:21.460Z,140696.63
2023-02-27T17:50:24.833Z,140649.94
2023-02-27T17:55:28.397Z,140604.44
2023-02-27T18:00:35.686Z,140622.88
2023-02-27T18:05:39.144Z,140606.91
2023-02-27T18:10:47.896Z,140554.13
2023-02-27T18:15:53.085Z,140530.78
2023-02-27T18:21:03.006Z,140489.00
2023-02-27T18:26:07.148Z,140446.09
2023-02-27T18:31:20.369Z,140410.47
2023-02-27T18:36:26.782Z,140424.00
2023-02-27T18:41:33.035Z,140448.56
2023-02-27T18:46:38.272Z,140477.97
2023-02-27T18:51:41.660Z,140468.16
2023-02-27T18:56:45.111Z,140455.91
2023-02-27T19:01:49.839Z,140489.00
2023-02-27T19:06:55.664Z,140487.78
2023-02-27T19:12:01.505Z,140501.31
2023-02-27T19:17:06.338Z,140493.91
2023-02-27T19:22:12.076Z,140470.66
2023-02-27T19:27:17.074Z,140435.03
2023-02-27T19:32:24.253Z,140420.31
2023-02-27T19:37:27.719Z,140399.44
2023-02-27T19:42:33.095Z,140390.88
2023-02-27T19:47:39.619Z,140433.81
2023-02-27T19:52:43.291Z,140428.91
2023-02-27T19:57:47.073Z,140431.34
2023-02-27T20:02:57.155Z,140392.09
2023-02-27T20:08:02.769Z,140356.47
2023-02-27T20:13:08.714Z,140366.31
2023-02-27T20:18:14.628Z,140339.31
2023-02-27T20:23:18.230Z,140323.34
2023-02-27T20:28:23.112Z,140316.00
2023-02-27T20:33:28.744Z,140284.09
2023-02-27T20:38:33.575Z,140282.88
2023-02-27T20:43:38.835Z,140312.31
2023-02-27T20:48:46.069Z,140308.63
2023-02-27T20:53:51.533Z,140298.78
2023-02-27T20:58:57.993Z,140254.66
2023-02-27T21:04:21.276Z,140241.13
2023-02-27T21:10:20.111Z,140219.09
2023-02-27T21:15:27.050Z,140210.47
2023-02-27T21:20:42.939Z,140243.59
2023-02-27T21:25:49.513Z,140279.19
2023-02-27T21:30:55.130Z,140255.88
2023-02-27T21:36:04.735Z,140287.78
2023-02-27T21:41:12.708Z,140254.66
2023-02-27T21:46:16.232Z,140260.78
2023-02-27T21:51:33.262Z,140273.03
2023-02-27T21:56:46.193Z,140227.66
2023-02-27T22:01:50.552Z,140220.31
2023-02-27T22:06:56.278Z,140277.97
2023-02-27T22:12:00.299Z,140306.19
2023-02-27T22:17:03.913Z,140271.78
2023-02-27T22:22:08.665Z,140249.75
2023-02-27T22:27:12.263Z,140265.69
2023-02-27T22:32:15.740Z,140266.91
